Time;durP1;ratioP1;P1;durP2;ratioP2;P2;SDS_P1;SDS_P2;PMS_P1;PMS_P2;Temp;Humidity;BMP_temperature;BMP_pressure;BME280_temperature;BME280_humidity;BME280_pressure;Samples;Min_cycle;Max_cycle;Signal;HPM_P1;HPM_P2
2023/07/18 00:01:56;;;;;;;9.70;8.10;;;;;;;19.42;100.00;97352.98;110163;1240;59746;-65
2023/07/18 00:04:30;;;;;;;10.90;7.80;;;;;;;19.38;100.00;97353.37;110194;1242;60108;-65
2023/07/18 00:07:05;;;;;;;9.60;7.70;;;;;;;19.35;100.00;97351.59;110168;1241;71277;-64
2023/07/18 00:09:37;;;;;;;10.10;7.00;;;;;;;19.33;100.00;97343.51;110224;1242;69236;-66
2023/07/18 00:12:08;;;;;;;9.20;7.00;;;;;;;19.29;100.00;97338.41;110166;1245;68544;-66
2023/07/18 00:14:38;;;;;;;8.30;6.80;;;;;;;19.28;100.00;97341.08;110182;1242;59719;-64
2023/07/18 00:17:09;;;;;;;7.40;6.10;;;;;;;19.26;100.00;97343.88;110195;1242;59737;-64
2023/07/18 00:19:39;;;;;;;9.10;6.70;;;;;;;19.23;100.00;97334.73;110188;1242;71814;-66
2023/07/18 00:22:10;;;;;;;8.70;6.40;;;;;;;19.19;100.00;97333.20;110234;1242;68454;-64
2023/07/18 00:24:40;;;;;;;8.60;7.70;;;;;;;19.14;100.00;97329.92;110148;1241;68363;-64
2023/07/18 00:27:11;;;;;;;10.00;7.80;;;;;;;19.08;100.00;97322.40;110218;1240;59791;-64
2023/07/18 00:29:44;;;;;;;10.00;7.40;;;;;;;19.03;100.00;97317.94;110148;1241;59733;-64
2023/07/18 00:32:14;;;;;;;11.90;9.30;;;;;;;19.02;100.00;97319.67;110183;1248;71230;-64
2023/07/18 00:34:49;;;;;;;8.60;7.10;;;;;;;19.00;100.00;97330.20;110186;1242;69336;-66
2023/07/18 00:37:20;;;;;;;9.70;7.20;;;;;;;18.97;100.00;97329.66;110161;1242;69122;-65
2023/07/18 00:39:53;;;;;;;9.20;7.30;;;;;;;18.92;100.00;97328.04;110155;1242;59693;-65
2023/07/18 00:42:23;;;;;;;12.70;9.30;;;;;;;18.89;100.00;97323.67;110218;1242;59724;-66
2023/07/18 00:44:53;;;;;;;11.10;7.90;;;;;;;18.85;100.00;97321.59;110169;1242;70801;-66
2023/07/18 00:47:25;;;;;;;9.80;7.80;;;;;;;18.83;100.00;97325.14;110244;1240;68821;-66
2023/07/18 00:49:56;;;;;;;9.80;8.10;;;;;;;18.81;100.00;97328.98;110232;1242;70337;-65
2023/07/18 00:52:28;;;;;;;11.10;8.40;;;;;;;18.78;100.00;97325.96;110190;1241;59667;-66
2023/07/18 00:55:01;;;;;;;10.20;7.90;;;;;;;18.74;100.00;97327.14;110211;1242;59676;-66
2023/07/18 00:57:36;;;;;;;10.10;8.20;;;;;;;18.71;100.00;97331.84;110132;1245;70532;-66
2023/07/18 01:00:11;;;;;;;9.30;7.70;;;;;;;18.69;100.00;97332.29;110181;1242;68408;-64
2023/07/18 01:02:44;;;;;;;10.10;7.40;;;;;;;18.65;100.00;97329.36;110150;1242;69504;-65
2023/07/18 01:05:19;;;;;;;7.30;6.20;;;;;;;18.62;100.00;97316.58;110148;1242;59747;-64
2023/07/18 01:07:51;;;;;;;9.60;7.50;;;;;;;18.57;100.00;97315.73;110145;1242;59661;-64
2023/07/18 01:10:23;;;;;;;11.80;8.90;;;;;;;18.53;100.00;97317.39;110153;1240;71264;-66
2023/07/18 01:12:57;;;;;;;10.90;8.20;;;;;;;18.48;100.00;97316.34;110233;1242;69201;-64
2023/07/18 01:15:31;;;;;;;10.90;8.80;;;;;;;18.46;100.00;97320.47;110190;1240;69311;-66
2023/07/18 01:18:04;;;;;;;10.70;7.70;;;;;;;18.46;100.00;97321.27;110125;1242;59750;-64
2023/07/18 01:20:36;;;;;;;10.90;7.30;;;;;;;18.47;100.00;97320.17;110182;1241;59668;-65
2023/07/18 01:23:06;;;;;;;10.10;7.70;;;;;;;18.47;100.00;97313.59;110129;1243;70825;-66
2023/07/18 01:25:38;;;;;;;10.10;7.70;;;;;;;18.47;100.00;97308.63;110140;1241;69179;-64
2023/07/18 01:28:10;;;;;;;10.10;7.20;;;;;;;18.45;100.00;97306.41;110136;1244;68907;-65
2023/07/18 01:30:45;;;;;;;9.90;7.80;;;;;;;18.44;100.00;97302.13;110181;1242;59670;-67
2023/07/18 01:33:18;;;;;;;9.70;7.70;;;;;;;18.42;100.00;97305.55;110124;1243;59709;-65
2023/07/18 01:35:48;;;;;;;10.50;7.80;;;;;;;18.39;100.00;97308.61;110209;1242;70625;-66
2023/07/18 01:38:19;;;;;;;9.80;7.80;;;;;;;18.39;100.00;97307.06;110208;1242;69228;-64
2023/07/18 01:40:51;;;;;;;8.70;6.60;;;;;;;18.37;100.00;97313.66;110094;1245;68634;-65
2023/07/18 01:43:26;;;;;;;9.60;7.70;;;;;;;18.33;100.00;97312.21;110192;1243;60133;-66
2023/07/18 01:45:59;;;;;;;9.90;8.10;;;;;;;18.30;100.00;97310.77;110172;1241;59711;-65
2023/07/18 01:48:32;;;;;;;9.90;7.50;;;;;;;18.25;100.00;97312.91;110233;1245;70956;-67
2023/07/18 01:51:03;;;;;;;10.40;8.70;;;;;;;18.22;100.00;97316.79;110201;1243;68747;-66
2023/07/18 01:53:38;;;;;;;11.90;9.10;;;;;;;18.18;100.00;97314.55;110237;1242;68582;-66
2023/07/18 01:56:10;;;;;;;11.80;9.30;;;;;;;18.15;100.00;97319.43;110242;1241;59743;-65
2023/07/18 01:58:40;;;;;;;13.80;11.90;;;;;;;18.14;100.00;97319.21;110177;1241;59727;-66
2023/07/18 02:01:11;;;;;;;13.80;10.00;;;;;;;18.13;100.00;97323.54;110160;1241;71370;-65
2023/07/18 02:03:44;;;;;;;11.60;9.70;;;;;;;18.14;100.00;97326.58;110233;1241;69139;-66
2023/07/18 02:06:25;;;;;;;12.40;9.80;;;;;;;18.16;100.00;97330.65;110218;1242;69075;-65
2023/07/18 02:08:58;;;;;;;10.70;8.20;;;;;;;18.17;100.00;97337.05;110152;1241;59751;-66
2023/07/18 02:11:28;;;;;;;12.80;8.70;;;;;;;18.17;100.00;97338.33;110199;1242;59669;-65
2023/07/18 02:14:02;;;;;;;11.20;8.90;;;;;;;18.16;100.00;97345.95;110171;1243;71364;-66
2023/07/18 02:16:36;;;;;;;10.60;8.00;;;;;;;18.13;100.00;97354.23;110199;1242;69065;-64
2023/07/18 02:19:07;;;;;;;9.40;7.10;;;;;;;18.11;100.00;97360.09;110138;1243;69311;-66
2023/07/18 02:21:39;;;;;;;10.00;7.30;;;;;;;18.10;100.00;97364.42;110102;1241;59719;-65
2023/07/18 02:24:11;;;;;;;10.90;7.70;;;;;;;18.10;100.00;97367.44;110201;1242;59626;-65
2023/07/18 02:26:42;;;;;;;10.10;7.80;;;;;;;18.10;100.00;97375.20;110154;1242;70356;-64
2023/07/18 02:29:13;;;;;;;9.50;7.20;;;;;;;18.11;100.00;97386.54;110119;1245;68653;-66
2023/07/18 02:31:47;;;;;;;10.30;8.30;;;;;;;18.12;100.00;97394.16;110159;1241;68254;-66
2023/07/18 02:34:25;;;;;;;11.80;8.80;;;;;;;18.14;100.00;97398.70;110208;1242;59700;-65
2023/07/18 02:36:59;;;;;;;10.90;8.60;;;;;;;18.20;100.00;97399.73;110241;1241;59670;-65
2023/07/18 02:39:32;;;;;;;9.60;6.90;;;;;;;18.25;100.00;97402.48;110167;1241;71420;-65
2023/07/18 02:42:04;;;;;;;11.30;8.60;;;;;;;18.29;100.00;97405.76;110171;1242;69143;-65
2023/07/18 02:44:38;;;;;;;9.80;7.50;;;;;;;18.34;100.00;97412.55;110193;1242;68688;-67
2023/07/18 02:47:11;;;;;;;12.40;7.30;;;;;;;18.37;100.00;97413.27;110212;1242;59682;-66
2023/07/18 02:49:47;;;;;;;8.70;6.10;;;;;;;18.40;100.00;97412.59;110274;1242;59691;-67
2023/07/18 02:52:20;;;;;;;7.50;5.80;;;;;;;18.43;100.00;97412.27;110147;1241;72564;-65
2023/07/18 02:54:53;;;;;;;13.60;7.30;;;;;;;18.47;100.00;97409.98;110187;1241;69324;-63
2023/07/18 02:57:33;;;;;;;7.60;6.10;;;;;;;18.47;100.00;97408.66;110145;1242;69572;-64
2023/07/18 03:00:06;;;;;;;8.60;6.20;;;;;;;18.49;100.00;97409.73;110156;1245;59720;-65
2023/07/18 03:02:37;;;;;;;10.00;7.20;;;;;;;18.49;100.00;97406.52;110190;1242;59695;-65
2023/07/18 03:05:09;;;;;;;9.70;6.70;;;;;;;18.50;100.00;97403.26;110129;1242;71632;-65
2023/07/18 03:07:39;;;;;;;10.30;6.90;;;;;;;18.51;100.00;97399.84;110222;1241;69295;-68
2023/07/18 03:10:10;;;;;;;8.80;6.30;;;;;;;18.52;100.00;97400.11;110153;1246;69314;-64
2023/07/18 03:12:41;;;;;;;8.20;6.50;;;;;;;18.53;100.00;97401.20;110155;1245;59733;-66
2023/07/18 03:15:14;;;;;;;8.00;6.10;;;;;;;18.54;100.00;97396.15;110219;1242;59666;-65
2023/07/18 03:17:50;;;;;;;7.90;5.80;;;;;;;18.54;100.00;97395.63;110202;1241;71352;-64
2023/07/18 03:20:23;;;;;;;8.10;6.10;;;;;;;18.56;100.00;97395.42;110245;1242;69214;-64
2023/07/18 03:22:54;;;;;;;8.60;6.60;;;;;;;18.59;100.00;97397.22;110136;1245;69119;-66
2023/07/18 03:25:25;;;;;;;9.20;6.70;;;;;;;18.62;100.00;97397.77;110206;1242;59748;-64
2023/07/18 03:27:57;;;;;;;8.20;6.40;;;;;;;18.64;100.00;97406.34;110185;1243;59626;-65
2023/07/18 03:30:27;;;;;;;11.20;6.30;;;;;;;18.66;100.00;97409.83;110214;1242;71211;-65
2023/07/18 03:32:57;;;;;;;10.80;7.00;;;;;;;18.67;100.00;97413.81;110209;1241;69243;-65
2023/07/18 03:35:28;;;;;;;8.90;6.70;;;;;;;18.68;100.00;97408.98;110177;1242;69911;-63
2023/07/18 03:37:59;;;;;;;9.70;7.60;;;;;;;18.68;100.00;97409.16;110193;1241;59682;-65
2023/07/18 03:40:32;;;;;;;10.10;8.00;;;;;;;18.68;100.00;97407.41;110197;1242;59682;-64
2023/07/18 03:43:03;;;;;;;12.50;7.60;;;;;;;18.71;100.00;97411.84;109693;1244;578835;-64
2023/07/18 03:45:34;;;;;;;9.90;6.80;;;;;;;18.75;100.00;97409.59;110210;1241;69277;-64
2023/07/18 03:48:06;;;;;;;8.80;7.20;;;;;;;18.79;100.00;97407.81;110199;1242;68013;-66
2023/07/18 03:50:38;;;;;;;9.60;6.80;;;;;;;18.81;100.00;97410.00;110219;1242;59673;-64
2023/07/18 03:53:12;;;;;;;11.40;7.90;;;;;;;18.87;100.00;97411.63;110201;1242;59745;-67
2023/07/18 03:55:43;;;;;;;9.50;6.40;;;;;;;18.90;100.00;97413.55;110171;1243;71538;-66
2023/07/18 03:58:14;;;;;;;9.80;7.70;;;;;;;18.96;100.00;97412.94;110148;1242;70265;-65
2023/07/18 04:00:45;;;;;;;10.20;7.60;;;;;;;19.01;100.00;97413.20;110196;1242;69268;-65
2023/07/18 04:03:15;;;;;;;8.70;6.80;;;;;;;19.08;100.00;97411.42;110159;1242;59740;-64
2023/07/18 04:05:47;;;;;;;8.40;7.00;;;;;;;19.15;100.00;97413.64;110181;1242;59649;-64
2023/07/18 04:08:18;;;;;;;11.80;7.80;;;;;;;19.23;100.00;97416.69;110162;1242;70644;-64
2023/07/18 04:10:48;;;;;;;9.10;6.90;;;;;;;19.28;100.00;97417.48;110241;1242;69045;-66
2023/07/18 04:13:18;;;;;;;11.00;7.90;;;;;;;19.35;100.00;97416.95;110162;1240;68494;-65
2023/07/18 04:15:49;;;;;;;9.50;6.80;;;;;;;19.40;100.00;97422.88;110204;1242;59775;-64
2023/07/18 04:18:19;;;;;;;9.30;7.00;;;;;;;19.42;100.00;97425.55;110160;1242;59630;-62
2023/07/18 04:20:58;;;;;;;9.40;7.10;;;;;;;19.48;100.00;97429.16;110192;1241;71196;-63
2023/07/18 04:23:28;;;;;;;10.40;7.30;;;;;;;19.52;100.00;97436.65;110199;1242;68763;-65
2023/07/18 04:26:01;;;;;;;9.10;7.40;;;;;;;19.56;100.00;97442.29;110206;1242;68179;-64
2023/07/18 04:28:34;;;;;;;12.20;8.40;;;;;;;19.62;100.00;97445.48;110189;1242;59740;-65
2023/07/18 04:31:05;;;;;;;11.00;7.80;;;;;;;19.71;100.00;97450.52;110172;1242;59639;-64
2023/07/18 04:33:36;;;;;;;10.30;7.00;;;;;;;19.73;100.00;97453.86;110208;1241;71504;-66
2023/07/18 04:36:07;;;;;;;8.90;6.80;;;;;;;19.78;100.00;97453.63;110186;1242;68436;-65
2023/07/18 04:38:37;;;;;;;9.50;7.20;;;;;;;19.85;100.00;97454.12;110216;1242;69237;-64
2023/07/18 04:41:08;;;;;;;8.20;6.70;;;;;;;19.98;100.00;97458.93;110214;1241;59695;-65
2023/07/18 04:43:38;;;;;;;8.70;6.60;;;;;;;20.05;100.00;97459.92;110172;1242;59632;-66
2023/07/18 04:46:10;;;;;;;6.80;6.00;;;;;;;20.16;100.00;97461.13;110248;1241;70762;-66
2023/07/18 04:48:40;;;;;;;7.00;5.50;;;;;;;20.30;100.00;97455.98;110215;1240;69363;-66
2023/07/18 04:51:10;;;;;;;7.50;6.30;;;;;;;20.42;100.00;97457.60;110154;1246;69899;-66
2023/07/18 04:53:40;;;;;;;7.10;5.40;;;;;;;20.51;100.00;97457.77;110235;1242;59681;-64
2023/07/18 04:56:10;;;;;;;6.30;4.50;;;;;;;20.65;100.00;97464.86;110191;1242;59751;-65
2023/07/18 04:58:40;;;;;;;7.80;5.40;;;;;;;20.80;100.00;97464.73;110206;1242;71249;-64
2023/07/18 05:01:11;;;;;;;6.60;4.70;;;;;;;20.88;100.00;97460.11;110186;1242;69204;-65
2023/07/18 05:03:42;;;;;;;6.30;5.40;;;;;;;20.96;100.00;97461.83;110176;1242;68358;-64
2023/07/18 05:06:26;;;;;;;6.20;5.10;;;;;;;21.01;100.00;97463.02;110158;1243;59745;-64
2023/07/18 05:08:55;;;;;;;5.80;4.40;;;;;;;21.14;100.00;97464.57;110221;1240;59801;-64
2023/07/18 05:11:25;;;;;;;6.70;4.30;;;;;;;21.31;100.00;97468.95;110151;1245;72003;-65
2023/07/18 05:13:55;;;;;;;5.50;4.00;;;;;;;21.57;100.00;97475.70;110215;1242;68616;-63
2023/07/18 05:16:25;;;;;;;5.80;4.00;;;;;;;21.89;100.00;97476.58;110198;1242;69364;-64
2023/07/18 05:18:55;;;;;;;4.20;3.50;;;;;;;22.21;100.00;97479.73;110225;1242;60098;-66
2023/07/18 05:21:24;;;;;;;;;;;;;;;22.54;97.94;97480.14;110156;1244;59698;-66
2023/07/18 05:23:55;;;;;;;4.40;3.80;;;;;;;22.74;97.16;97490.89;110257;1243;71401;-66
2023/07/18 05:26:24;;;;;;;6.60;4.90;;;;;;;23.05;95.24;97491.85;110169;1241;69270;-67
2023/07/18 05:28:54;;;;;;;5.70;4.30;;;;;;;23.23;94.20;97490.61;110143;1240;68737;-65
2023/07/18 05:31:23;;;;;;;4.60;3.60;;;;;;;23.42;93.62;97495.39;110205;1242;59678;-66
2023/07/18 05:33:53;;;;;;;4.50;3.20;;;;;;;23.86;90.46;97496.46;110209;1241;59659;-65
2023/07/18 05:36:23;;;;;;;5.60;3.20;;;;;;;24.06;84.83;97500.33;110159;1242;72189;-66
2023/07/18 05:38:51;;;;;;;5.20;3.80;;;;;;;24.10;84.61;97501.04;110234;1242;69295;-66
2023/07/18 05:41:21;;;;;;;3.70;3.00;;;;;;;24.27;85.03;97505.27;110190;1242;68780;-66
2023/07/18 05:43:51;;;;;;;4.50;3.50;;;;;;;24.41;83.62;97507.81;110226;1242;59745;-68
2023/07/18 05:46:20;;;;;;;4.20;3.30;;;;;;;24.46;84.30;97509.96;110231;1242;59623;-68
2023/07/18 05:48:51;;;;;;;4.40;3.70;;;;;;;24.47;84.52;97512.92;110261;1248;69839;-68
2023/07/18 05:51:20;;;;;;;4.30;3.90;;;;;;;24.28;84.37;97514.69;110171;1240;68168;-65
2023/07/18 05:53:50;;;;;;;4.70;4.00;;;;;;;23.98;85.82;97508.33;110194;1241;69075;-67
2023/07/18 05:56:21;;;;;;;6.50;4.20;;;;;;;23.95;85.22;97508.23;110195;1243;59689;-66
2023/07/18 05:58:50;;;;;;;5.50;4.20;;;;;;;23.46;86.41;97504.22;110207;1242;59688;-66
2023/07/18 06:01:19;;;;;;;5.60;4.20;;;;;;;23.08;89.83;97516.95;110190;1242;71388;-66
2023/07/18 06:03:50;;;;;;;6.20;3.90;;;;;;;23.35;91.28;97517.36;110203;1242;69855;-67
2023/07/18 06:06:19;;;;;;;5.60;4.10;;;;;;;23.60;89.51;97513.19;110223;1242;69893;-67
2023/07/18 06:08:48;;;;;;;;;;;;;;;23.79;87.99;97512.30;110171;1243;59675;-66
2023/07/18 06:11:19;;;;;;;5.60;3.90;;;;;;;24.08;87.05;97510.96;110211;1242;59669;-68
2023/07/18 06:13:49;;;;;;;5.20;3.80;;;;;;;24.41;85.82;97508.16;110186;1242;70640;-67
2023/07/18 06:16:18;;;;;;;4.40;4.00;;;;;;;24.59;83.19;97513.94;110222;1244;69759;-68
2023/07/18 06:18:47;;;;;;;5.00;4.50;;;;;;;24.59;84.10;97515.42;110104;1246;69720;-68
2023/07/18 06:21:16;;;;;;;6.10;4.80;;;;;;;24.71;83.81;97514.16;110200;1241;59688;-68
2023/07/18 06:23:46;;;;;;;5.60;4.60;;;;;;;24.90;82.11;97520.66;110217;1242;59669;-69
2023/07/18 06:26:16;;;;;;;5.60;4.60;;;;;;;25.10;81.67;97519.31;110216;1242;71298;-67
2023/07/18 06:28:45;;;;;;;4.40;3.90;;;;;;;25.08;80.48;97523.10;110176;1242;68115;-65
2023/07/18 06:31:15;;;;;;;;;;;;;;;25.10;80.70;97523.52;110217;1242;69208;-66
2023/07/18 06:33:45;;;;;;;4.90;4.30;;;;;;;25.16;81.55;97526.66;110147;1249;59745;-66
2023/07/18 06:36:15;;;;;;;5.20;4.20;;;;;;;25.18;80.76;97532.60;110210;1242;59695;-66
2023/07/18 06:38:46;;;;;;;5.30;4.20;;;;;;;25.08;80.80;97531.43;110226;1242;71378;-64
2023/07/18 06:41:16;;;;;;;5.90;4.70;;;;;;;25.08;82.45;97533.19;110241;1243;69291;-67
2023/07/18 06:43:46;;;;;;;5.50;4.80;;;;;;;25.21;82.33;97538.63;110211;1245;69043;-65
2023/07/18 06:46:16;;;;;;;4.90;4.40;;;;;;;25.24;81.38;97544.14;110206;1242;59760;-64
2023/07/18 06:48:45;;;;;;;5.80;5.00;;;;;;;25.18;80.44;97551.13;110185;1242;60092;-65
2023/07/18 06:51:14;;;;;;;5.70;5.20;;;;;;;24.97;79.85;97549.95;110247;1241;71450;-67
2023/07/18 06:53:43;;;;;;;6.00;5.40;;;;;;;24.75;80.85;97554.52;110215;1242;69280;-66
2023/07/18 06:56:12;;;;;;;6.60;5.20;;;;;;;24.56;81.25;97559.70;110190;1245;70110;-65
2023/07/18 06:58:42;;;;;;;5.20;4.40;;;;;;;24.46;82.04;97560.44;110191;1242;59693;-65
2023/07/18 07:01:12;;;;;;;6.30;5.50;;;;;;;24.36;82.71;97562.79;110200;1243;59696;-67
2023/07/18 07:03:41;;;;;;;6.00;5.30;;;;;;;24.30;83.37;97567.58;110198;1243;71284;-65
2023/07/18 07:06:12;;;;;;;6.00;5.40;;;;;;;24.20;83.39;97565.65;110236;1245;69262;-65
2023/07/18 07:08:41;;;;;;;6.40;5.70;;;;;;;24.14;83.79;97568.36;110208;1241;68523;-65
2023/07/18 07:11:10;;;;;;;7.30;6.00;;;;;;;24.16;83.92;97570.84;110223;1248;59673;-67
2023/07/18 07:13:39;;;;;;;6.80;5.20;;;;;;;24.23;83.80;97568.84;110198;1249;59681;-63
2023/07/18 07:16:08;;;;;;;5.80;5.20;;;;;;;24.34;84.42;97566.95;110199;1242;72053;-66
2023/07/18 07:18:36;;;;;;;6.90;5.90;;;;;;;24.53;84.05;97568.05;110206;1242;70228;-66
2023/07/18 07:21:06;;;;;;;;;;;;;;;24.64;82.81;97572.15;110261;1244;69109;-66
2023/07/18 07:23:35;;;;;;;5.80;5.20;;;;;;;24.78;82.45;97577.56;110230;1245;59683;-67
2023/07/18 07:26:04;;;;;;;6.50;5.70;;;;;;;24.96;82.78;97577.45;110243;1243;59671;-64
2023/07/18 07:28:35;;;;;;;6.10;5.50;;;;;;;25.05;82.05;97578.69;110231;1243;72940;-64
2023/07/18 07:31:05;;;;;;;5.10;4.60;;;;;;;25.17;81.13;97579.18;110220;1249;69239;-67
2023/07/18 07:33:34;;;;;;;5.90;5.30;;;;;;;25.20;80.17;97579.07;110219;1245;69586;-65
2023/07/18 07:36:04;;;;;;;5.60;4.80;;;;;;;25.07;77.57;97578.39;110212;1249;59740;-67
2023/07/18 07:38:34;;;;;;;5.10;4.60;;;;;;;24.92;78.55;97578.20;110182;1241;59706;-65
2023/07/18 07:41:06;;;;;;;5.50;4.90;;;;;;;24.83;76.79;97582.60;110198;1240;71343;-65
2023/07/18 07:43:35;;;;;;;5.60;5.00;;;;;;;25.30;76.93;97583.29;110197;1242;69847;-67
2023/07/18 07:46:05;;;;;;;5.90;4.60;;;;;;;25.95;76.46;97586.14;110193;1242;69268;-64
2023/07/18 07:48:34;;;;;;;5.80;5.10;;;;;;;26.60;73.71;97579.41;110181;1242;59748;-65
2023/07/18 07:51:06;;;;;;;5.70;5.10;;;;;;;26.65;68.51;97577.27;110175;1242;59627;-65
2023/07/18 07:53:35;;;;;;;7.20;4.90;;;;;;;26.91;67.92;97575.70;110197;1242;71317;-67
2023/07/18 07:56:04;;;;;;;5.80;5.20;;;;;;;27.14;68.59;97572.30;110206;1242;69966;-66
2023/07/18 07:58:33;;;;;;;5.10;4.60;;;;;;;27.66;67.95;97571.80;110144;1243;69146;-66
2023/07/18 08:01:02;;;;;;;;;;;;;;;28.08;65.25;97569.20;110263;1242;59727;-67
2023/07/18 08:03:31;;;;;;;5.30;4.50;;;;;;;28.42;63.68;97567.23;110203;1243;59709;-65
2023/07/18 08:06:00;;;;;;;5.40;4.80;;;;;;;29.01;62.98;97567.10;110140;1243;71977;-65
2023/07/18 08:08:30;;;;;;;6.10;4.80;;;;;;;29.54;61.71;97568.08;110203;1241;68534;-66
2023/07/18 08:10:59;;;;;;;5.00;4.50;;;;;;;29.99;60.08;97561.98;110205;1242;68549;-65
2023/07/18 08:13:28;;;;;;;5.60;4.80;;;;;;;30.39;56.64;97562.55;110213;1245;59815;-64
2023/07/18 08:15:57;;;;;;;;;;;;;;;30.45;55.80;97562.57;110236;1241;59682;-67
2023/07/18 08:18:26;;;;;;;5.30;4.80;;;;;;;29.73;56.38;97563.36;110212;1242;71196;-65
2023/07/18 08:20:55;;;;;;;4.90;4.40;;;;;;;29.36;56.98;97567.81;110236;1242;69238;-66
2023/07/18 08:23:24;;;;;;;5.00;4.50;;;;;;;29.01;58.07;97573.37;110189;1241;69405;-66
2023/07/18 08:25:54;;;;;;;5.10;4.30;;;;;;;29.13;58.02;97570.36;110229;1243;59744;-67
2023/07/18 08:28:23;;;;;;;5.20;4.60;;;;;;;28.45;60.10;97569.89;110211;1243;59650;-67
2023/07/18 08:30:52;;;;;;;5.30;4.80;;;;;;;29.31;60.19;97570.52;110195;1242;71832;-67
2023/07/18 08:33:24;;;;;;;5.00;4.50;;;;;;;29.65;58.93;97565.58;110222;1242;69247;-67
2023/07/18 08:35:53;;;;;;;5.00;4.50;;;;;;;30.23;57.72;97565.80;110180;1240;69284;-67
2023/07/18 08:38:22;;;;;;;5.00;4.30;;;;;;;30.78;56.53;97565.15;110232;1246;59804;-66
2023/07/18 08:40:52;;;;;;;5.80;4.40;;;;;;;31.08;53.35;97569.46;110246;1242;59743;-66
2023/07/18 08:43:22;;;;;;;4.70;4.20;;;;;;;31.51;54.43;97570.02;110232;1241;70619;-67
2023/07/18 08:45:55;;;;;;;4.90;4.30;;;;;;;31.50;50.86;97567.55;110242;1242;69923;-67
2023/07/18 08:52:39;;;;;;;4.60;4.00;;;;;;;31.87;50.78;97566.41;110195;1242;59744;-67
2023/07/18 08:55:12;;;;;;;5.10;4.50;;;;;;;32.12;51.37;97565.00;110200;1249;59640;-67
2023/07/18 08:57:56;;;;;;;4.30;3.90;;;;;;;32.40;51.08;97560.25;110245;1243;70638;-68
2023/07/18 09:04:03;;;;;;;6.60;4.60;;;;;;;32.80;47.67;97548.71;110167;1243;69226;-67
2023/07/18 09:06:32;;;;;;;4.70;4.20;;;;;;;32.11;48.27;97550.67;110141;1245;59749;-66
2023/07/18 09:09:02;;;;;;;5.70;4.30;;;;;;;31.73;47.96;97553.40;110159;1246;59668;-66
2023/07/18 09:11:31;;;;;;;4.30;3.90;;;;;;;32.22;48.33;97548.59;110234;1242;71989;-67
2023/07/18 09:14:00;;;;;;;4.40;3.50;;;;;;;32.42;48.52;97542.88;110252;1242;69595;-66
2023/07/18 09:16:29;;;;;;;4.00;3.70;;;;;;;32.24;47.75;97542.27;110217;1242;69871;-68
2023/07/18 09:18:58;;;;;;;4.30;3.90;;;;;;;32.61;47.56;97543.73;110217;1243;59731;-67
2023/07/18 09:21:27;;;;;;;4.20;3.80;;;;;;;32.96;47.19;97543.61;110187;1241;59690;-68
2023/07/18 09:23:56;;;;;;;4.10;3.70;;;;;;;33.58;45.96;97544.09;110203;1242;71370;-68
2023/07/18 09:26:26;;;;;;;3.90;3.60;;;;;;;33.86;43.84;97540.77;110218;1242;68467;-67
2023/07/18 09:28:55;;;;;;;5.50;4.20;;;;;;;33.90;43.66;97539.56;110207;1243;69895;-65
2023/07/18 09:31:26;;;;;;;4.50;3.80;;;;;;;34.12;43.92;97539.00;110217;1242;59664;-67
2023/07/18 09:33:55;;;;;;;4.10;3.70;;;;;;;34.43;43.57;97537.23;110282;1249;59748;-67
2023/07/18 09:36:24;;;;;;;4.00;3.60;;;;;;;34.91;43.40;97533.61;110241;1242;71755;-67
2023/07/18 09:38:54;;;;;;;3.80;3.40;;;;;;;35.06;42.12;97534.76;110261;1241;69189;-68
2023/07/18 09:41:23;;;;;;;4.30;3.60;;;;;;;34.92;41.20;97532.23;110235;1245;69170;-67
2023/07/18 09:43:54;;;;;;;4.10;3.70;;;;;;;34.84;43.20;97529.60;110317;1242;59664;-68
2023/07/18 09:46:43;;;;;;;4.00;3.60;;;;;;;35.07;40.71;97530.96;110230;1242;59679;-68
2023/07/18 09:49:14;;;;;;;4.10;3.70;;;;;;;34.25;41.21;97532.28;110251;1242;70630;-67
2023/07/18 09:52:18;;;;;;;4.20;3.80;;;;;;;34.42;42.16;97531.36;110272;1242;70299;-68
2023/07/18 09:54:52;;;;;;;5.00;4.10;;;;;;;34.55;41.82;97528.27;109924;1250;69281;-67
2023/07/18 09:57:22;;;;;;;3.90;3.50;;;;;;;34.92;39.41;97524.76;110192;1242;59769;-68
2023/07/18 09:59:53;;;;;;;4.20;3.80;;;;;;;35.40;39.93;97522.81;110213;1242;59646;-67
2023/07/18 10:02:22;;;;;;;3.50;3.20;;;;;;;35.78;39.38;97524.50;110181;1243;71957;-69
2023/07/18 10:04:51;;;;;;;4.50;3.60;;;;;;;36.09;38.81;97526.94;110258;1243;69260;-68
2023/07/18 10:07:21;;;;;;;4.00;3.70;;;;;;;36.25;37.31;97522.02;110240;1242;69866;-68
2023/07/18 10:09:50;;;;;;;3.90;3.00;;;;;;;36.20;36.73;97516.27;110157;1241;59727;-68
2023/07/18 10:12:19;;;;;;;3.50;3.20;;;;;;;35.59;37.27;97522.52;110203;1241;59808;-68
2023/07/18 10:14:52;;;;;;;3.40;3.10;;;;;;;34.98;37.27;97517.39;110210;1240;71794;-68
2023/07/18 10:17:32;;;;;;;4.10;3.40;;;;;;;34.02;38.80;97519.98;110194;1243;69209;-68
2023/07/18 10:20:13;;;;;;;3.50;3.20;;;;;;;34.37;38.07;97523.83;110251;1243;70030;-67
2023/07/18 10:22:48;;;;;;;3.80;3.50;;;;;;;34.19;38.17;97519.06;110209;1242;59705;-68
2023/07/18 10:25:18;;;;;;;4.10;3.70;;;;;;;33.67;39.10;97518.73;110146;1241;59708;-67
2023/07/18 10:27:49;;;;;;;4.30;3.30;;;;;;;32.55;38.41;97516.08;110225;1241;70600;-67
2023/07/18 10:30:20;;;;;;;4.00;3.60;;;;;;;32.81;39.30;97507.16;110239;1248;68356;-66
2023/07/18 10:32:56;;;;;;;3.90;3.20;;;;;;;32.71;39.89;97510.66;110210;1243;70245;-66
2023/07/18 10:35:27;;;;;;;4.60;3.40;;;;;;;33.10;40.36;97507.80;110262;1242;60100;-67
2023/07/18 10:38:03;;;;;;;3.30;2.90;;;;;;;33.41;39.33;97503.38;110191;1241;59776;-68
2023/07/18 10:40:39;;;;;;;3.90;3.10;;;;;;;33.64;38.53;97503.17;110168;1243;70449;-66
2023/07/18 10:43:11;;;;;;;3.60;3.30;;;;;;;33.87;37.09;97493.67;110206;1242;69670;-67
2023/07/18 10:45:42;;;;;;;3.50;3.10;;;;;;;33.90;36.62;97492.93;110193;1249;69825;-67
2023/07/18 10:48:32;;;;;;;4.60;3.60;;;;;;;33.81;36.96;97498.88;110228;1242;59743;-66
2023/07/18 10:51:03;;;;;;;5.70;3.80;;;;;;;33.84;37.73;97500.58;110197;1242;59654;-67
2023/07/18 10:53:32;;;;;;;4.00;2.90;;;;;;;33.69;37.64;97493.52;110243;1242;71980;-66
2023/07/18 10:56:01;;;;;;;3.30;2.80;;;;;;;33.78;38.07;97491.95;110236;1243;69824;-67
2023/07/18 10:58:31;;;;;;;3.70;2.90;;;;;;;33.78;36.92;97486.38;110113;1241;69223;-65
2023/07/18 11:01:01;;;;;;;3.90;3.40;;;;;;;33.75;34.57;97484.98;109901;1241;59747;-67
2023/07/18 11:03:35;;;;;;;4.20;3.10;;;;;;;33.71;34.33;97492.12;110206;1241;59731;-67
2023/07/18 11:06:05;;;;;;;3.50;3.10;;;;;;;33.64;34.24;97491.08;110250;1246;71409;-66
2023/07/18 11:08:33;;;;;;;3.20;2.90;;;;;;;33.65;33.59;97490.17;110217;1247;69115;-67
2023/07/18 11:11:03;;;;;;;;;;;;;;;33.68;33.72;97488.95;110199;1242;69090;-66
2023/07/18 11:13:34;;;;;;;4.10;3.20;;;;;;;33.72;33.05;97492.13;110156;1244;59763;-68
2023/07/18 11:16:12;;;;;;;3.10;2.80;;;;;;;33.66;32.49;97487.57;110250;1241;59689;-68
2023/07/18 11:18:46;;;;;;;2.90;2.40;;;;;;;33.69;31.73;97486.84;110240;1242;71755;-68
2023/07/18 11:21:18;;;;;;;3.70;2.90;;;;;;;33.74;31.96;97480.76;110165;1242;70197;-68
2023/07/18 11:23:48;;;;;;;3.40;2.60;;;;;;;33.91;31.95;97478.52;110204;1241;69803;-67
2023/07/18 11:26:18;;;;;;;4.10;2.90;;;;;;;34.04;31.82;97479.55;110246;1243;59710;-66
2023/07/18 11:28:52;;;;;;;4.00;2.90;;;;;;;34.13;32.33;97480.70;110262;1242;59733;-68
2023/07/18 11:31:28;;;;;;;4.30;2.70;;;;;;;34.08;31.61;97478.62;110261;1241;71183;-67
2023/07/18 11:34:10;;;;;;;3.40;2.60;;;;;;;34.07;31.04;97473.72;110132;1245;70215;-66
2023/07/18 11:36:40;;;;;;;4.20;2.90;;;;;;;34.30;31.85;97474.90;110206;1241;69609;-68
2023/07/18 11:39:19;;;;;;;3.40;2.80;;;;;;;34.29;31.16;97473.69;110240;1242;59680;-68
2023/07/18 11:41:51;;;;;;;3.00;2.40;;;;;;;34.36;31.32;97472.55;110224;1241;59672;-67
2023/07/18 11:44:25;;;;;;;4.90;2.50;;;;;;;34.37;30.70;97473.20;110206;1244;70623;-67
2023/07/18 11:46:55;;;;;;;3.30;3.00;;;;;;;34.35;30.43;97474.17;110214;1241;69641;-66
2023/07/18 11:49:35;;;;;;;4.10;2.80;;;;;;;34.20;31.17;97475.23;110205;1243;70186;-65